createdAt,value
2019-05-26T00:00:51.307Z,90.41
2019-05-26T00:01:51.301Z,90.37
2019-05-26T00:02:51.357Z,91.74
2019-05-26T00:03:51.267Z,90.92
2019-05-26T00:04:51.250Z,90.82
2019-05-26T00:05:51.246Z,90.62
2019-05-26T00:06:51.268Z,91.13
2019-05-26T00:07:51.318Z,91.54
2019-05-26T00:08:51.239Z,92.46
2019-05-26T00:09:51.197Z,91.23
2019-05-26T00:10:51.194Z,90.86
2019-05-26T00:11:51.200Z,90.25
2019-05-26T00:12:51.170Z,91.89
2019-05-26T00:13:51.170Z,91.78
2019-05-26T00:14:51.150Z,91.38
2019-05-26T00:15:51.143Z,91.69
2019-05-26T00:16:51.145Z,90.25
2019-05-26T00:17:51.153Z,90.77
2019-05-26T00:18:51.120Z,91.89
2019-05-26T00:19:51.099Z,91.78
2019-05-26T00:20:51.099Z,91.17
2019-05-26T00:21:51.093Z,90.97
2019-05-26T00:22:51.059Z,91.07
2019-05-26T00:23:51.054Z,91.73
2019-05-26T00:24:51.045Z,90.81
2019-05-26T00:25:51.040Z,90.45
2019-05-26T00:26:51.036Z,91.42
2019-05-26T00:27:51.013Z,91.78
2019-05-26T00:28:51.005Z,91.83
2019-05-26T00:29:51.001Z,91.78
2019-05-26T00:30:51.019Z,91.01
2019-05-26T00:31:50.989Z,91.63
2019-05-26T00:32:50.977Z,91.93
2019-05-26T00:33:50.942Z,92.44
2019-05-26T00:34:50.941Z,92.75
2019-05-26T00:35:50.929Z,92.65
2019-05-26T00:36:50.940Z,92.14
2019-05-26T00:37:51.029Z,91.31
2019-05-26T00:38:50.895Z,92.96
2019-05-26T00:39:50.880Z,92.44
2019-05-26T00:40:50.898Z,92.44
2019-05-26T00:41:50.873Z,92.44
2019-05-26T00:42:50.861Z,91.83
2019-05-26T00:43:50.839Z,91.63
2019-05-26T00:44:50.894Z,91.83
2019-05-26T00:45:50.816Z,92.08
2019-05-26T00:46:50.825Z,92.55
2019-05-26T00:47:50.796Z,92.59
2019-05-26T00:48:50.789Z,93.37
2019-05-26T00:49:50.798Z,92.85
2019-05-26T00:50:50.757Z,92.24
2019-05-26T00:51:50.779Z,92.65
2019-05-26T00:52:50.746Z,92.24
2019-05-26T00:53:50.737Z,92.65
2019-05-26T00:54:50.714Z,92.49
2019-05-26T00:55:50.700Z,92.90
2019-05-26T00:56:50.687Z,92.38
2019-05-26T00:57:50.707Z,92.90
2019-05-26T00:58:50.679Z,92.59
2019-05-26T00:59:50.671Z,92.94
2019-05-26T01:00:50.673Z,92.69
2019-05-26T01:01:50.644Z,93.55
2019-05-26T01:02:50.645Z,93.71
2019-05-26T01:03:50.638Z,93.51
2019-05-26T01:04:50.608Z,94.02
2019-05-26T01:05:50.621Z,93.76
2019-05-26T01:06:50.587Z,93.76
2019-05-26T01:08:05.324Z,94.17
2019-05-26T01:08:51.563Z,93.55
2019-05-26T01:09:50.571Z,93.25
2019-05-26T01:10:50.545Z,93.04
2019-05-26T01:11:50.601Z,93.15
2019-05-26T01:12:50.539Z,93.25
2019-05-26T01:13:50.514Z,93.60
2019-05-26T01:14:50.496Z,94.17
2019-05-26T01:15:50.507Z,93.55
2019-05-26T01:16:50.498Z,94.17
2019-05-26T01:17:50.506Z,94.37
2019-05-26T01:18:50.458Z,94.07
2019-05-26T01:19:50.503Z,94.58
2019-05-26T01:20:50.436Z,94.07
2019-05-26T01:21:50.447Z,94.27
2019-05-26T01:22:53.628Z,93.86
2019-05-26T01:23:50.402Z,93.70
2019-05-26T01:24:50.406Z,93.60
2019-05-26T01:25:50.393Z,94.07
2019-05-26T01:26:50.411Z,93.76
2019-05-26T01:27:50.381Z,93.80
2019-05-26T01:28:50.365Z,94.11
2019-05-26T01:29:50.343Z,93.39
2019-05-26T01:30:50.332Z,93.80
2019-05-26T01:31:50.316Z,93.90
2019-05-26T01:32:50.335Z,93.80
2019-05-26T01:33:50.304Z,94.11
2019-05-26T01:34:50.306Z,93.74
2019-05-26T01:35:50.290Z,93.70
2019-05-26T01:36:50.268Z,94.01
2019-05-26T01:37:50.276Z,94.05
2019-05-26T01:38:50.242Z,93.74
2019-05-26T01:39:50.256Z,94.26
2019-05-26T01:40:50.219Z,94.21
2019-05-26T01:41:50.211Z,94.05
2019-05-26T01:42:50.200Z,93.80
2019-05-26T01:43:50.207Z,93.95
2019-05-26T01:44:50.186Z,94.73
2019-05-26T01:45:50.167Z,94.62
2019-05-26T01:46:50.150Z,94.15
2019-05-26T01:47:50.145Z,94.77
2019-05-26T01:48:50.149Z,94.83
2019-05-26T01:49:50.155Z,94.77
2019-05-26T01:50:50.114Z,94.93
2019-05-26T01:51:50.121Z,94.52
2019-05-26T01:52:50.093Z,94.36
2019-05-26T01:53:50.099Z,94.26
2019-05-26T01:54:50.106Z,94.77
2019-05-26T01:55:50.061Z,95.18
2019-05-26T01:56:50.057Z,94.77
2019-05-26T01:57:50.041Z,94.73
2019-05-26T01:58:50.042Z,95.03
2019-05-26T01:59:50.017Z,94.67
2019-05-26T02:00:50.019Z,94.77
2019-05-26T02:01:49.990Z,94.26
2019-05-26T02:02:50.003Z,94.15
2019-05-26T02:03:49.999Z,94.98
2019-05-26T02:04:49.963Z,95.49
2019-05-26T02:05:49.961Z,95.49
2019-05-26T02:06:49.951Z,94.98
2019-05-26T02:07:49.927Z,95.69
2019-05-26T02:08:49.950Z,95.07
2019-05-26T02:09:49.912Z,94.67
2019-05-26T02:10:49.901Z,94.46
2019-05-26T02:11:49.889Z,94.26
2019-05-26T02:12:49.905Z,94.67
2019-05-26T02:13:49.890Z,94.56
2019-05-26T02:14:49.860Z,94.67
2019-05-26T02:15:49.846Z,94.67
2019-05-26T02:16:49.836Z,94.36
2019-05-26T02:17:49.847Z,94.26
2019-05-26T02:18:49.829Z,94.46
2019-05-26T02:19:49.802Z,94.87
2019-05-26T02:20:49.812Z,94.87
2019-05-26T02:21:49.799Z,94.46
2019-05-26T02:22:49.777Z,95.79
2019-05-26T02:23:49.805Z,95.69
2019-05-26T02:24:49.748Z,95.79
2019-05-26T02:25:49.740Z,95.18
2019-05-26T02:26:49.749Z,94.67
2019-05-26T02:27:49.709Z,94.36
2019-05-26T02:28:49.719Z,94.56
2019-05-26T02:29:49.721Z,94.98
2019-05-26T02:30:49.683Z,95.90
2019-05-26T02:31:49.676Z,95.69
2019-05-26T02:32:49.669Z,94.98
2019-05-26T02:33:49.664Z,95.18
2019-05-26T02:34:49.642Z,94.98
2019-05-26T02:35:49.655Z,95.74
2019-05-26T02:36:49.622Z,95.49
2019-05-26T02:37:49.619Z,95.64
2019-05-26T02:39:01.777Z,95.90
2019-05-26T02:39:50.584Z,95.59
2019-05-26T02:40:49.572Z,95.28
2019-05-26T02:41:49.573Z,95.79
2019-05-26T02:42:49.553Z,94.87
2019-05-26T02:43:49.575Z,94.15
2019-05-26T02:44:49.557Z,94.87
2019-05-26T02:45:49.514Z,94.77
2019-05-26T02:46:49.510Z,95.28
2019-05-26T02:47:49.498Z,95.69
2019-05-26T02:48:49.549Z,94.77
2019-05-26T02:49:49.507Z,94.56
2019-05-26T02:50:49.475Z,94.87
2019-05-26T02:51:49.470Z,95.07
2019-05-26T02:52:49.454Z,94.77
2019-05-26T02:53:49.454Z,94.67
2019-05-26T02:54:49.430Z,94.56
2019-05-26T02:55:49.418Z,94.87
2019-05-26T02:56:49.413Z,94.20
2019-05-26T02:57:49.391Z,94.15
2019-05-26T02:58:49.428Z,94.98
2019-05-26T02:59:49.376Z,95.23
2019-05-26T03:00:49.368Z,94.56
2019-05-26T03:02:02.577Z,94.98
2019-05-26T03:02:50.345Z,94.77
2019-05-26T03:03:49.350Z,94.56
2019-05-26T03:04:49.322Z,95.69
2019-05-26T03:05:49.317Z,95.07
2019-05-26T03:06:49.310Z,95.28
2019-05-26T03:07:49.308Z,95.49
2019-05-26T03:08:49.399Z,96.00
2019-05-26T03:09:49.277Z,96.41
2019-05-26T03:10:49.268Z,95.79
2019-05-26T03:11:49.265Z,95.69
2019-05-26T03:12:49.229Z,95.39
2019-05-26T03:13:49.271Z,96.31
2019-05-26T03:14:49.230Z,96.06
2019-05-26T03:15:49.206Z,94.93
2019-05-26T03:16:49.192Z,94.73
2019-05-26T03:17:49.191Z,94.62
2019-05-26T03:18:49.172Z,94.62
2019-05-26T03:19:49.184Z,95.20
2019-05-26T03:20:49.152Z,94.58
2019-05-26T03:21:49.180Z,93.76
2019-05-26T03:22:49.130Z,93.45
2019-05-26T03:23:53.248Z,93.96
2019-05-26T03:24:49.127Z,94.27
2019-05-26T03:25:49.102Z,93.04
2019-05-26T03:26:49.081Z,93.86
2019-05-26T03:27:49.070Z,93.45
2019-05-26T03:28:49.108Z,92.53
2019-05-26T03:29:49.071Z,92.43
2019-05-26T03:30:49.045Z,92.43
2019-05-26T03:31:49.026Z,92.32
2019-05-26T03:32:49.030Z,93.45
2019-05-26T03:33:49.021Z,93.55
2019-05-26T03:34:49.030Z,93.55
2019-05-26T03:35:48.989Z,93.96
2019-05-26T03:36:48.989Z,93.86
2019-05-26T03:37:48.964Z,93.55
2019-05-26T03:38:48.961Z,93.96
2019-05-26T03:39:48.965Z,93.80
2019-05-26T03:40:48.935Z,93.60
2019-05-26T03:41:48.931Z,93.49
2019-05-26T03:42:48.923Z,94.01
2019-05-26T03:43:48.895Z,94.32
2019-05-26T03:44:48.922Z,93.90
2019-05-26T03:45:48.880Z,93.60
2019-05-26T03:46:48.877Z,93.70
2019-05-26T03:47:48.867Z,94.21
2019-05-26T03:48:48.861Z,94.77
2019-05-26T03:49:48.844Z,94.46
2019-05-26T03:50:48.821Z,94.26
2019-05-26T03:51:48.814Z,94.36
2019-05-26T03:52:48.803Z,94.52
2019-05-26T03:53:48.799Z,95.07
2019-05-26T03:54:48.840Z,94.77
2019-05-26T03:55:48.773Z,95.07
2019-05-26T03:56:48.765Z,95.75
2019-05-26T03:57:48.748Z,94.93
2019-05-26T03:58:48.858Z,94.93
2019-05-26T03:59:48.764Z,94.83
2019-05-26T04:00:48.723Z,94.83
2019-05-26T04:01:48.707Z,94.36
2019-05-26T04:02:48.700Z,95.18
2019-05-26T04:03:48.693Z,94.62
2019-05-26T04:04:48.698Z,94.11
2019-05-26T04:05:48.669Z,94.11
2019-05-26T04:06:48.658Z,94.01
2019-05-26T04:07:48.670Z,94.52
2019-05-26T04:08:48.636Z,94.21
2019-05-26T04:10:03.976Z,94.78
2019-05-26T04:10:49.632Z,94.78
2019-05-26T04:11:48.603Z,94.58
2019-05-26T04:12:48.586Z,94.37
2019-05-26T04:13:48.583Z,94.23
2019-05-26T04:14:48.578Z,93.41
2019-05-26T04:15:48.579Z,93.37
2019-05-26T04:16:48.546Z,93.26
2019-05-26T04:17:48.547Z,92.19
2019-05-26T04:18:48.537Z,91.38
2019-05-26T04:19:48.542Z,90.72
2019-05-26T04:20:48.538Z,90.82
2019-05-26T04:21:48.485Z,90.92
2019-05-26T04:22:48.487Z,90.37
2019-05-26T04:23:48.477Z,90.27
2019-05-26T04:24:48.456Z,89.72
2019-05-26T04:25:48.478Z,89.41
2019-05-26T04:26:48.441Z,89.26
2019-05-26T04:27:48.426Z,89.12
2019-05-26T04:28:48.419Z,87.65
2019-05-26T04:29:48.404Z,86.29
2019-05-26T04:30:48.423Z,84.67
2019-05-26T04:31:48.383Z,83.82
2019-05-26T04:32:48.377Z,83.01
2019-05-26T04:33:48.364Z,82.76
2019-05-26T04:34:48.349Z,81.71
2019-05-26T04:35:48.366Z,80.69
2019-05-26T04:36:48.321Z,80.76
2019-05-26T04:37:48.324Z,80.15
2019-05-26T04:38:48.310Z,79.50
2019-05-26T04:39:48.324Z,79.09
2019-05-26T04:40:48.309Z,78.58
2019-05-26T04:41:48.276Z,78.55
2019-05-26T04:42:48.272Z,77.73
2019-05-26T04:43:48.266Z,77.94
2019-05-26T04:44:48.239Z,77.29
2019-05-26T04:45:48.256Z,77.05
2019-05-26T04:46:48.224Z,76.34
2019-05-26T04:47:48.212Z,75.79
2019-05-26T04:48:48.200Z,74.54
2019-05-26T04:49:48.201Z,73.60
2019-05-26T04:50:48.322Z,73.90
2019-05-26T04:51:48.180Z,73.49
2019-05-26T04:53:05.519Z,72.81
2019-05-26T04:53:49.138Z,71.77
2019-05-26T04:54:48.133Z,71.47
2019-05-26T04:55:48.143Z,71.26
2019-05-26T04:56:48.112Z,71.26
2019-05-26T04:57:48.109Z,71.26
2019-05-26T04:58:48.093Z,70.73
2019-05-26T04:59:48.082Z,70.29
2019-05-26T05:00:48.084Z,69.89
2019-05-26T05:01:48.053Z,69.14
2019-05-26T05:02:48.046Z,68.74
2019-05-26T05:03:48.035Z,68.71
2019-05-26T05:04:48.026Z,67.39
2019-05-26T05:05:48.024Z,68.54
2019-05-26T05:06:48.014Z,68.54
2019-05-26T05:07:47.990Z,69.45
2019-05-26T05:08:47.975Z,68.10
2019-05-26T05:09:47.970Z,67.39
2019-05-26T05:10:47.981Z,66.96
2019-05-26T05:11:47.957Z,66.96
2019-05-26T05:12:47.950Z,67.36
2019-05-26T05:13:47.921Z,66.45
2019-05-26T05:14:47.913Z,66.39
2019-05-26T05:15:47.923Z,66.39
2019-05-26T05:16:47.889Z,65.48
2019-05-26T05:17:47.930Z,65.99
2019-05-26T05:18:47.872Z,66.19
2019-05-26T05:19:47.857Z,66.29
2019-05-26T05:20:47.847Z,65.55
2019-05-26T05:21:47.861Z,64.75
2019-05-26T05:22:47.826Z,65.85
2019-05-26T05:23:47.823Z,64.41
2019-05-26T05:24:47.807Z,64.11
2019-05-26T05:25:47.788Z,64.38
2019-05-26T05:26:47.798Z,64.35
2019-05-26T05:27:47.773Z,62.94
2019-05-26T05:28:47.758Z,63.67
2019-05-26T05:29:47.761Z,63.85
2019-05-26T05:30:47.739Z,64.07
2019-05-26T05:31:47.745Z,63.47
2019-05-26T05:32:47.720Z,62.71
2019-05-26T05:33:47.702Z,62.61
2019-05-26T05:34:47.692Z,62.30
2019-05-26T05:35:47.686Z,61.94
2019-05-26T05:36:47.696Z,60.81
2019-05-26T05:37:47.665Z,60.71
2019-05-26T05:38:47.653Z,60.98
2019-05-26T05:39:47.646Z,59.65
2019-05-26T05:40:58.949Z,59.34
2019-05-26T05:41:48.637Z,58.84
2019-05-26T05:42:47.610Z,59.65
2019-05-26T05:43:47.598Z,60.08
2019-05-26T05:44:47.589Z,59.05
2019-05-26T05:45:47.572Z,59.55
2019-05-26T05:46:47.580Z,58.49
2019-05-26T05:47:47.554Z,57.91
2019-05-26T05:48:47.539Z,58.64
2019-05-26T05:49:47.539Z,59.05
2019-05-26T05:50:47.525Z,58.84
2019-05-26T05:51:47.525Z,60.72
2019-05-26T05:52:47.509Z,59.77
2019-05-26T05:53:47.494Z,57.03
2019-05-26T05:54:47.479Z,57.79
2019-05-26T05:55:47.469Z,57.91
2019-05-26T05:56:47.479Z,59.12
2019-05-26T05:57:47.442Z,58.75
2019-05-26T05:58:47.437Z,60.11
2019-05-26T05:59:47.424Z,60.94
2019-05-26T06:00:47.411Z,62.21
2019-05-26T06:01:47.421Z,62.48
2019-05-26T06:02:47.398Z,62.18
2019-05-26T06:03:47.382Z,61.87
2019-05-26T06:04:47.375Z,62.81
2019-05-26T06:05:47.365Z,63.21
2019-05-26T06:06:47.536Z,62.68
2019-05-26T06:07:47.357Z,62.65
2019-05-26T06:08:47.331Z,62.18
2019-05-26T06:09:47.317Z,62.68
2019-05-26T06:10:47.305Z,62.45
2019-05-26T06:11:47.312Z,62.02
2019-05-26T06:12:47.282Z,61.91
2019-05-26T06:13:47.278Z,61.21
2019-05-26T06:14:47.269Z,61.65
2019-05-26T06:15:47.266Z,62.55
2019-05-26T06:16:47.264Z,62.45
2019-05-26T06:17:47.229Z,62.55
2019-05-26T06:18:47.221Z,62.24
2019-05-26T06:19:47.203Z,62.45
2019-05-26T06:20:47.195Z,62.35
2019-05-26T06:21:47.207Z,61.71
2019-05-26T06:22:47.179Z,61.11
2019-05-26T06:23:47.163Z,61.21
2019-05-26T06:24:47.155Z,61.79
2019-05-26T06:25:47.143Z,60.69
2019-05-26T06:26:47.153Z,59.94
2019-05-26T06:27:47.125Z,58.30
2019-05-26T06:28:47.133Z,57.00
2019-05-26T06:29:58.420Z,56.77
2019-05-26T06:30:48.122Z,55.87
2019-05-26T06:31:47.307Z,56.67
2019-05-26T06:32:47.137Z,56.85
2019-05-26T06:33:47.061Z,55.12
2019-05-26T06:34:47.058Z,54.69
2019-05-26T06:35:47.140Z,56.12
2019-05-26T06:36:47.353Z,55.42
2019-05-26T06:37:47.042Z,55.27
2019-05-26T06:38:47.068Z,54.24
2019-05-26T06:39:47.045Z,53.72
2019-05-26T06:40:46.997Z,52.99
2019-05-26T06:41:47.015Z,53.42
2019-05-26T06:42:46.974Z,54.69
2019-05-26T06:43:46.946Z,53.39
2019-05-26T06:44:53.594Z,53.09
2019-05-26T06:45:47.936Z,53.92
2019-05-26T06:46:47.092Z,54.02
2019-05-26T06:47:46.915Z,54.02
2019-05-26T06:48:46.913Z,53.99
2019-05-26T06:49:46.883Z,54.19
2019-05-26T06:50:46.874Z,54.14
2019-05-26T06:51:46.898Z,54.84
2019-05-26T06:52:46.905Z,53.92
2019-05-26T06:53:46.843Z,53.52
2019-05-26T06:54:46.855Z,52.62
2019-05-26T06:55:46.820Z,52.62
2019-05-26T06:56:46.830Z,53.02
2019-05-26T06:57:46.818Z,54.61
2019-05-26T06:58:46.793Z,54.47
2019-05-26T06:59:46.781Z,55.57
2019-05-26T07:00:46.804Z,54.79
2019-05-26T07:01:46.771Z,56.02
2019-05-26T07:02:46.756Z,55.07
2019-05-26T07:03:46.730Z,54.57
2019-05-26T07:04:46.723Z,54.86
2019-05-26T07:05:46.716Z,54.06
2019-05-26T07:06:46.706Z,52.94
2019-05-26T07:07:46.709Z,52.09
2019-05-26T07:08:46.681Z,50.99
2019-05-26T07:09:46.667Z,51.07
2019-05-26T07:10:46.655Z,51.03
2019-05-26T07:11:54.194Z,49.63
2019-05-26T07:12:47.652Z,49.88
2019-05-26T07:13:46.624Z,47.56
2019-05-26T07:14:46.621Z,46.83
2019-05-26T07:15:46.602Z,45.93
2019-05-26T07:16:46.595Z,46.25
2019-05-26T07:17:46.599Z,47.64
2019-05-26T07:18:46.579Z,49.36
2019-05-26T07:19:46.567Z,47.05
2019-05-26T07:20:46.556Z,46.92
2019-05-26T07:21:46.542Z,46.08
2019-05-26T07:22:46.554Z,45.45
2019-05-26T07:23:46.538Z,46.04
2019-05-26T07:24:46.531Z,46.30
2019-05-26T07:25:46.502Z,43.89
2019-05-26T07:26:46.498Z,42.98
2019-05-26T07:27:46.493Z,42.96
2019-05-26T07:28:46.469Z,42.86
2019-05-26T07:29:46.463Z,42.90
2019-05-26T07:30:46.459Z,44.11
2019-05-26T07:31:46.444Z,43.00
2019-05-26T07:32:46.459Z,43.06
2019-05-26T07:33:46.414Z,43.04
2019-05-26T07:34:46.405Z,41.31
2019-05-26T07:35:49.697Z,41.10
2019-05-26T07:36:46.387Z,40.50
2019-05-26T07:37:46.414Z,40.17
2019-05-26T07:38:46.391Z,39.52
2019-05-26T07:39:46.372Z,38.49
2019-05-26T07:40:46.350Z,36.88
2019-05-26T07:41:46.339Z,37.54
2019-05-26T07:42:46.409Z,35.74
2019-05-26T07:43:46.316Z,36.51
2019-05-26T07:44:46.308Z,35.70
2019-05-26T07:45:46.292Z,34.38
2019-05-26T07:46:46.286Z,32.37
2019-05-26T07:47:46.355Z,33.94
2019-05-26T07:48:46.267Z,32.73
2019-05-26T07:49:46.266Z,33.92
2019-05-26T07:50:46.249Z,32.95
2019-05-26T07:51:46.236Z,32.62
2019-05-26T07:52:46.262Z,30.94
2019-05-26T07:53:46.267Z,31.52
2019-05-26T07:54:46.201Z,31.85
2019-05-26T07:55:46.193Z,32.45
2019-05-26T07:56:46.193Z,31.87
2019-05-26T07:57:46.212Z,32.58
2019-05-26T07:58:46.176Z,32.39
2019-05-26T07:59:46.199Z,31.57
2019-05-26T08:00:46.170Z,31.35
2019-05-26T08:01:46.172Z,30.84
2019-05-26T08:02:46.164Z,29.75
2019-05-26T08:03:46.138Z,30.65
2019-05-26T08:04:46.127Z,31.36
2019-05-26T08:05:46.153Z,30.96
2019-05-26T08:06:46.097Z,30.15
2019-05-26T08:07:46.131Z,30.11
2019-05-26T08:08:46.074Z,29.89
2019-05-26T08:09:46.093Z,29.49
2019-05-26T08:10:46.078Z,29.42
2019-05-26T08:11:46.103Z,30.93
2019-05-26T08:12:46.061Z,30.32
2019-05-26T08:13:46.030Z,31.16
2019-05-26T08:14:46.022Z,30.84
2019-05-26T08:15:46.038Z,31.20
2019-05-26T08:16:46.007Z,29.95
2019-05-26T08:17:46.109Z,29.75
2019-05-26T08:18:45.988Z,30.93
2019-05-26T08:19:46.012Z,30.11
2019-05-26T08:20:45.980Z,30.80
2019-05-26T08:21:45.967Z,30.07
2019-05-26T08:22:45.972Z,28.99
2019-05-26T08:23:45.988Z,29.52
2019-05-26T08:24:45.941Z,29.22
2019-05-26T08:25:45.935Z,29.04
2019-05-26T08:26:45.928Z,28.45
2019-05-26T08:27:45.926Z,28.53
2019-05-26T08:28:45.966Z,27.54
2019-05-26T08:29:45.898Z,27.33
2019-05-26T08:30:45.952Z,26.53
2019-05-26T08:31:45.901Z,28.08
2019-05-26T08:32:45.888Z,26.52
2019-05-26T08:33:45.865Z,26.37
2019-05-26T08:34:45.919Z,28.66
2019-05-26T08:35:45.856Z,27.58
2019-05-26T08:36:45.845Z,28.23
2019-05-26T08:37:45.902Z,27.94
2019-05-26T08:38:45.853Z,26.40
2019-05-26T08:39:48.266Z,29.33
2019-05-26T08:40:45.832Z,27.81
2019-05-26T08:41:45.801Z,27.75
2019-05-26T08:42:45.871Z,27.06
2019-05-26T08:43:45.793Z,27.14
2019-05-26T08:44:45.782Z,26.38
2019-05-26T08:45:45.837Z,26.60
2019-05-26T08:46:45.759Z,27.78
2019-05-26T08:47:45.760Z,29.18
2019-05-26T08:48:45.762Z,29.30
2019-05-26T08:49:45.736Z,28.80
2019-05-26T08:50:45.768Z,27.89
2019-05-26T08:51:45.727Z,27.47
2019-05-26T08:52:45.724Z,25.68
2019-05-26T08:53:45.739Z,28.50
2019-05-26T08:54:45.740Z,29.03
2019-05-26T08:55:45.701Z,29.83
2019-05-26T08:56:45.738Z,30.10
2019-05-26T08:57:45.668Z,32.92
2019-05-26T08:58:45.693Z,34.39
2019-05-26T08:59:45.653Z,36.74
2019-05-26T09:00:45.656Z,33.62
2019-05-26T09:01:45.647Z,32.40
2019-05-26T09:02:45.627Z,32.06
2019-05-26T09:03:45.643Z,28.99
2019-05-26T09:04:45.602Z,28.11
2019-05-26T09:05:45.598Z,26.72
2019-05-26T09:06:45.594Z,24.93
2019-05-26T09:07:45.631Z,21.81
2019-05-26T09:08:45.592Z,21.58
2019-05-26T09:09:45.583Z,19.92
2019-05-26T09:10:45.564Z,19.63
2019-05-26T09:11:45.553Z,19.33
2019-05-26T09:12:59.761Z,21.39
2019-05-26T09:13:46.550Z,23.61
2019-05-26T09:14:45.526Z,25.05
2019-05-26T09:15:45.567Z,24.82
2019-05-26T09:16:45.507Z,24.69
2019-05-26T09:17:45.501Z,25.52
2019-05-26T09:18:45.498Z,23.59
2019-05-26T09:19:45.486Z,23.05
2019-05-26T09:20:45.547Z,22.36
2019-05-26T09:21:45.463Z,22.97
2019-05-26T09:22:45.467Z,23.38
2019-05-26T09:23:45.460Z,23.96
2019-05-26T09:24:45.438Z,22.30
2019-05-26T09:25:46.626Z,21.71
2019-05-26T09:26:45.442Z,22.76
2019-05-26T09:27:45.481Z,23.33
2019-05-26T09:28:45.439Z,23.47
2019-05-26T09:29:45.401Z,22.00
2019-05-26T09:30:45.416Z,21.39
2019-05-26T09:31:45.381Z,21.38
2019-05-26T09:32:45.400Z,20.80
2019-05-26T09:33:45.386Z,20.53
2019-05-26T09:34:45.759Z,23.82
2019-05-26T09:35:45.383Z,23.61
2019-05-26T09:36:45.373Z,23.90
2019-05-26T09:37:45.356Z,22.90
2019-05-26T09:38:45.395Z,23.86
2019-05-26T09:39:45.354Z,23.42
2019-05-26T09:40:45.344Z,23.10
2019-05-26T09:41:45.304Z,24.01
2019-05-26T09:42:45.303Z,23.79
2019-05-26T09:43:45.301Z,24.80
2019-05-26T09:44:45.300Z,26.01
2019-05-26T09:45:45.275Z,28.44
2019-05-26T09:46:45.277Z,32.52
2019-05-26T09:47:45.253Z,32.59
2019-05-26T09:48:45.242Z,32.82
2019-05-26T09:49:45.260Z,34.81
2019-05-26T09:50:45.222Z,34.27
2019-05-26T09:51:45.216Z,32.05
2019-05-26T09:52:45.211Z,29.25
2019-05-26T09:53:45.198Z,28.55
2019-05-26T09:54:45.205Z,26.48
2019-05-26T09:55:45.179Z,28.14
2019-05-26T09:56:45.187Z,25.74
2019-05-26T09:57:45.163Z,25.01
2019-05-26T09:58:45.154Z,23.44
2019-05-26T09:59:45.169Z,22.61
2019-05-26T10:00:45.135Z,21.80
2019-05-26T10:01:45.124Z,22.06
2019-05-26T10:02:45.159Z,21.27
2019-05-26T10:03:45.140Z,21.54
2019-05-26T10:04:45.144Z,19.70
2019-05-26T10:05:45.098Z,21.92
2019-05-26T10:06:45.090Z,20.91
2019-05-26T10:07:45.075Z,22.82
2019-05-26T10:08:45.113Z,24.09
2019-05-26T10:09:45.076Z,22.36
2019-05-26T10:10:45.052Z,23.32
2019-05-26T10:11:45.048Z,23.76
2019-05-26T10:12:45.073Z,24.32
2019-05-26T10:13:45.063Z,26.45
2019-05-26T10:14:47.772Z,26.81
2019-05-26T10:15:45.006Z,25.95
2019-05-26T10:16:44.997Z,23.99
2019-05-26T10:17:44.998Z,24.34
2019-05-26T10:18:44.992Z,24.01
2019-05-26T10:19:45.002Z,22.16
2019-05-26T10:20:45.050Z,22.74
2019-05-26T10:21:44.954Z,21.86
2019-05-26T10:22:44.945Z,20.90
2019-05-26T10:23:44.955Z,21.62
2019-05-26T10:24:44.938Z,24.91
2019-05-26T10:25:44.933Z,25.29
2019-05-26T10:26:44.940Z,26.84
2019-05-26T10:27:44.904Z,26.67
2019-05-26T10:28:44.891Z,26.78
2019-05-26T10:29:44.893Z,28.78
2019-05-26T10:30:44.901Z,29.73
2019-05-26T10:31:44.871Z,29.07
2019-05-26T10:32:44.883Z,29.58
2019-05-26T10:33:44.867Z,29.39
2019-05-26T10:34:44.837Z,31.69
2019-05-26T10:35:44.844Z,31.51
2019-05-26T10:36:44.832Z,32.70
2019-05-26T10:37:44.810Z,31.24
2019-05-26T10:38:44.822Z,31.83
2019-05-26T10:39:45.295Z,32.56
2019-05-26T10:40:44.798Z,32.35
2019-05-26T10:41:44.764Z,31.96
2019-05-26T10:42:44.758Z,31.99
2019-05-26T10:43:47.652Z,33.70
2019-05-26T10:44:44.741Z,35.21
2019-05-26T10:45:44.775Z,34.71
2019-05-26T10:46:44.724Z,33.03
2019-05-26T10:47:44.716Z,36.47
2019-05-26T10:48:44.707Z,32.68
2019-05-26T10:49:44.691Z,32.39
2019-05-26T10:50:44.714Z,33.06
2019-05-26T10:51:44.673Z,31.86
2019-05-26T10:52:44.662Z,30.66
2019-05-26T10:53:44.657Z,30.16
2019-05-26T10:54:44.647Z,31.03
2019-05-26T10:55:44.654Z,31.21
2019-05-26T10:56:44.655Z,30.62
2019-05-26T10:57:44.615Z,31.44
2019-05-26T10:58:44.610Z,32.13
2019-05-26T10:59:44.605Z,32.34
2019-05-26T11:00:44.586Z,32.84
2019-05-26T11:01:44.595Z,32.72
2019-05-26T11:02:44.570Z,32.82
2019-05-26T11:03:44.550Z,30.27
2019-05-26T11:04:44.530Z,30.29
2019-05-26T11:05:44.527Z,32.65
2019-05-26T11:06:44.539Z,34.82
2019-05-26T11:07:44.506Z,31.06
2019-05-26T11:08:44.502Z,33.15
2019-05-26T11:09:44.489Z,32.44
2019-05-26T11:10:44.476Z,32.64
2019-05-26T11:11:44.487Z,32.73
2019-05-26T11:12:44.470Z,32.34
2019-05-26T11:13:44.454Z,32.95
2019-05-26T11:14:44.437Z,32.75
2019-05-26T11:15:44.428Z,31.65
2019-05-26T11:16:44.450Z,32.44
2019-05-26T11:17:44.416Z,32.34
2019-05-26T11:18:44.399Z,32.52
2019-05-26T11:19:44.405Z,32.87
2019-05-26T11:20:44.376Z,33.89
2019-05-26T11:21:44.381Z,35.09
2019-05-26T11:22:44.346Z,34.59
2019-05-26T11:23:44.340Z,35.58
2019-05-26T11:24:44.331Z,36.27
2019-05-26T11:25:44.325Z,35.30
2019-05-26T11:26:44.368Z,34.83
2019-05-26T11:27:44.299Z,34.84
2019-05-26T11:28:44.281Z,34.55
2019-05-26T11:29:44.291Z,34.74
2019-05-26T11:30:44.268Z,35.73
2019-05-26T11:31:44.285Z,37.32
2019-05-26T11:32:44.251Z,36.51
2019-05-26T11:33:44.243Z,35.82
2019-05-26T11:34:44.223Z,35.91
2019-05-26T11:35:44.211Z,35.93
2019-05-26T11:36:44.223Z,36.82
2019-05-26T11:37:44.198Z,37.12
2019-05-26T11:38:44.191Z,36.62
2019-05-26T11:39:44.179Z,36.86
2019-05-26T11:40:44.446Z,37.17
2019-05-26T11:41:44.354Z,37.17
2019-05-26T11:42:45.242Z,38.64
2019-05-26T11:43:44.161Z,37.15
2019-05-26T11:44:44.138Z,37.13
2019-05-26T11:45:44.106Z,38.05
2019-05-26T11:46:44.109Z,38.42
2019-05-26T11:47:44.104Z,38.05
2019-05-26T11:48:44.089Z,39.14
2019-05-26T11:49:44.068Z,38.24
2019-05-26T11:50:44.060Z,37.34
2019-05-26T11:51:44.085Z,36.84
2019-05-26T11:52:44.082Z,37.13
2019-05-26T11:53:44.024Z,36.62
2019-05-26T11:54:44.022Z,36.62
2019-05-26T11:55:44.021Z,38.59
2019-05-26T11:56:43.988Z,36.10
2019-05-26T11:57:44.003Z,36.61
2019-05-26T11:58:43.997Z,35.82
2019-05-26T11:59:47.104Z,37.53
2019-05-26T12:00:43.970Z,36.92
2019-05-26T12:01:43.947Z,37.10
2019-05-26T12:02:43.981Z,37.08
2019-05-26T12:03:43.923Z,38.17
2019-05-26T12:04:43.929Z,36.97
2019-05-26T12:05:43.913Z,36.79
2019-05-26T12:06:43.910Z,37.68
2019-05-26T12:07:43.900Z,36.87
2019-05-26T12:08:43.872Z,38.07
2019-05-26T12:09:43.878Z,39.22
2019-05-26T12:10:43.879Z,38.82
2019-05-26T12:11:43.847Z,40.41
2019-05-26T12:12:43.872Z,39.40
2019-05-26T12:13:43.816Z,38.01
2019-05-26T12:14:43.810Z,36.72
2019-05-26T12:15:43.812Z,38.60
2019-05-26T12:16:43.793Z,38.31
2019-05-26T12:17:43.794Z,38.90
2019-05-26T12:18:43.830Z,39.63
2019-05-26T12:19:43.759Z,39.97
2019-05-26T12:20:43.746Z,40.64
2019-05-26T12:21:43.745Z,41.16
2019-05-26T12:22:43.747Z,40.44
2019-05-26T12:23:43.718Z,39.87
2019-05-26T12:24:43.730Z,41.17
2019-05-26T12:25:43.713Z,40.28
2019-05-26T12:26:43.685Z,40.36
2019-05-26T12:27:43.702Z,40.09
2019-05-26T12:28:43.661Z,42.17
2019-05-26T12:29:43.664Z,41.22
2019-05-26T12:30:43.649Z,42.35
2019-05-26T12:31:43.639Z,43.24
2019-05-26T12:32:43.673Z,43.84
2019-05-26T12:33:43.640Z,42.23
2019-05-26T12:34:43.603Z,42.43
2019-05-26T12:35:43.638Z,43.32
2019-05-26T12:36:43.588Z,43.62
2019-05-26T12:37:43.569Z,42.61
2019-05-26T12:38:43.591Z,42.69
2019-05-26T12:39:43.566Z,41.67
2019-05-26T12:40:43.540Z,40.48
2019-05-26T12:41:43.572Z,39.98
2019-05-26T12:42:43.518Z,40.76
2019-05-26T12:43:43.524Z,40.86
2019-05-26T12:44:49.547Z,41.04
2019-05-26T12:45:44.482Z,39.63
2019-05-26T12:46:43.476Z,40.23
2019-05-26T12:47:43.478Z,40.42
2019-05-26T12:48:43.500Z,40.33
2019-05-26T12:49:43.442Z,40.92
2019-05-26T12:50:43.433Z,39.83
2019-05-26T12:51:43.432Z,40.12
2019-05-26T12:52:43.413Z,40.72